createdAt,value
2018-10-17T00:02:10.603Z,17.63
2018-10-17T00:04:39.243Z,18.17
2018-10-17T00:07:07.808Z,18.90
2018-10-17T00:09:36.279Z,18.27
2018-10-17T00:12:04.885Z,19.43
2018-10-17T00:14:33.494Z,20.50
2018-10-17T00:17:02.062Z,20.07
2018-10-17T00:19:30.624Z,21.13
2018-10-17T00:21:59.137Z,20.13
2018-10-17T00:24:27.625Z,21.13
2018-10-17T00:26:56.291Z,20.70
2018-10-17T00:29:24.806Z,21.40
2018-10-17T00:31:53.337Z,20.93
2018-10-17T00:34:21.924Z,21.43
2018-10-17T00:36:50.432Z,19.97
2018-10-17T00:39:18.929Z,19.30
2018-10-17T00:41:47.468Z,18.03
2018-10-17T00:44:16.007Z,18.00
2018-10-17T00:46:44.555Z,17.27
2018-10-17T00:49:13.180Z,17.53
2018-10-17T00:51:41.611Z,16.50
2018-10-17T00:54:10.178Z,16.17
2018-10-17T00:56:38.667Z,16.13
2018-10-17T00:59:13.183Z,16.30
2018-10-17T01:01:41.657Z,16.40
2018-10-17T01:04:10.313Z,16.90
2018-10-17T01:06:39.395Z,17.60
2018-10-17T01:09:13.812Z,17.20
2018-10-17T01:11:42.585Z,17.37
2018-10-17T01:14:11.253Z,19.20
2018-10-17T01:16:39.739Z,19.77
2018-10-17T01:19:08.601Z,20.47
2018-10-17T01:21:37.617Z,21.33
2018-10-17T01:24:06.405Z,21.03
2018-10-17T01:26:34.913Z,22.73
2018-10-17T01:29:03.601Z,22.10
2018-10-17T01:31:32.156Z,22.40
2018-10-17T01:34:00.659Z,23.33
2018-10-17T01:36:29.153Z,23.77
2018-10-17T01:38:57.639Z,23.97
2018-10-17T01:41:26.285Z,23.67
2018-10-17T01:43:54.897Z,23.20
2018-10-17T01:46:23.380Z,24.00
2018-10-17T01:48:51.901Z,22.10
2018-10-17T01:51:20.404Z,22.73
2018-10-17T01:53:48.992Z,21.87
2018-10-17T01:56:17.625Z,22.73
2018-10-17T01:58:46.221Z,21.97
2018-10-17T02:01:14.794Z,22.87
2018-10-17T02:03:43.244Z,22.23
2018-10-17T02:06:11.944Z,22.37
2018-10-17T02:08:40.451Z,22.70
2018-10-17T02:11:08.999Z,21.47
2018-10-17T02:13:37.476Z,22.03
2018-10-17T02:16:06.020Z,23.27
2018-10-17T02:18:34.515Z,22.87
2018-10-17T02:21:03.012Z,23.50
2018-10-17T02:23:31.508Z,22.00
2018-10-17T02:26:00.023Z,24.10
2018-10-17T02:28:28.515Z,23.97
2018-10-17T02:30:57.216Z,22.97
2018-10-17T02:33:25.671Z,23.07
2018-10-17T02:35:54.198Z,23.33
2018-10-17T02:38:22.735Z,23.73
2018-10-17T02:40:51.327Z,25.60
2018-10-17T02:43:19.886Z,24.60
2018-10-17T02:45:48.454Z,25.60
2018-10-17T02:48:16.934Z,25.33
2018-10-17T02:50:45.404Z,25.10
2018-10-17T02:53:13.936Z,25.00
2018-10-17T02:55:42.433Z,25.50
2018-10-17T02:58:11.002Z,25.33
2018-10-17T03:00:39.507Z,25.93
2018-10-17T03:03:08.076Z,26.40
2018-10-17T03:05:36.608Z,26.97
2018-10-17T03:08:05.444Z,27.37
2018-10-17T03:10:34.047Z,26.83
2018-10-17T03:13:02.586Z,27.90
2018-10-17T03:15:31.142Z,28.53
2018-10-17T03:17:59.694Z,27.50
2018-10-17T03:20:28.203Z,26.57
2018-10-17T03:22:56.880Z,26.53
2018-10-17T03:25:25.376Z,27.27
2018-10-17T03:27:53.997Z,27.97
2018-10-17T03:30:22.388Z,27.93
2018-10-17T03:32:50.992Z,26.73
2018-10-17T03:35:19.483Z,27.20
2018-10-17T03:37:47.979Z,27.73
2018-10-17T03:40:16.486Z,28.13
2018-10-17T03:42:44.992Z,29.20
2018-10-17T03:45:13.598Z,27.73
2018-10-17T03:47:42.173Z,27.23
2018-10-17T03:50:10.677Z,28.83
2018-10-17T03:52:39.168Z,29.47
2018-10-17T03:55:07.923Z,29.33
2018-10-17T03:57:36.357Z,30.53
2018-10-17T04:00:05.300Z,30.90
2018-10-17T04:02:34.100Z,30.87
2018-10-17T04:05:03.730Z,32.13
2018-10-17T04:07:32.290Z,30.63
2018-10-17T04:10:00.869Z,30.77
2018-10-17T04:12:29.385Z,30.93
2018-10-17T04:14:57.906Z,32.07
2018-10-17T04:17:26.417Z,32.50
2018-10-17T04:19:54.957Z,33.83
2018-10-17T04:22:23.465Z,33.57
2018-10-17T04:24:52.024Z,33.30
2018-10-17T04:27:20.476Z,33.37
2018-10-17T04:29:49.115Z,35.60
2018-10-17T04:32:17.625Z,34.10
2018-10-17T04:34:46.146Z,35.90
2018-10-17T04:37:14.680Z,35.80
2018-10-17T04:39:43.263Z,34.23
2018-10-17T04:42:11.794Z,33.97
2018-10-17T04:44:40.307Z,34.53
2018-10-17T04:47:08.850Z,36.87
2018-10-17T04:49:37.310Z,38.20
2018-10-17T04:52:06.151Z,38.43
2018-10-17T04:54:34.792Z,39.13
2018-10-17T04:57:03.416Z,39.00
2018-10-17T04:59:32.026Z,37.90
2018-10-17T05:02:00.591Z,37.17
2018-10-17T05:04:29.132Z,37.43
2018-10-17T05:06:57.761Z,39.77
2018-10-17T05:09:26.233Z,39.13
2018-10-17T05:11:54.710Z,37.93
2018-10-17T05:14:23.326Z,39.10
2018-10-17T05:16:51.845Z,38.50
2018-10-17T05:19:20.470Z,37.43
2018-10-17T05:21:48.976Z,38.50
2018-10-17T05:24:17.581Z,42.43
2018-10-17T05:26:46.162Z,41.20
2018-10-17T05:29:14.731Z,40.93
2018-10-17T05:31:43.296Z,40.23
2018-10-17T05:34:11.771Z,41.47
2018-10-17T05:36:40.496Z,41.97
2018-10-17T05:39:09.396Z,43.27
2018-10-17T05:41:38.104Z,42.77
2018-10-17T05:44:06.694Z,45.53
2018-10-17T05:46:35.222Z,45.00
2018-10-17T05:49:03.844Z,46.20
2018-10-17T05:51:32.350Z,48.67
2018-10-17T05:54:00.945Z,50.10
2018-10-17T05:56:29.434Z,49.37
2018-10-17T05:58:57.930Z,47.03
2018-10-17T06:01:26.475Z,48.03
2018-10-17T06:04:01.703Z,46.23
2018-10-17T06:06:30.401Z,48.77
2018-10-17T06:09:00.101Z,50.57
2018-10-17T06:11:28.770Z,49.47
2018-10-17T06:13:57.349Z,50.17
2018-10-17T06:16:25.858Z,51.03
2018-10-17T06:18:55.980Z,49.03
2018-10-17T06:21:24.435Z,48.30
2018-10-17T06:23:52.927Z,51.53
2018-10-17T06:26:21.445Z,48.17
2018-10-17T06:28:49.977Z,49.13
2018-10-17T06:31:18.590Z,48.90
2018-10-17T06:33:47.120Z,49.07
2018-10-17T06:36:15.592Z,50.17
2018-10-17T06:38:44.114Z,46.33
2018-10-17T06:41:12.875Z,45.10
2018-10-17T06:43:41.539Z,44.00
2018-10-17T06:46:10.004Z,46.07
2018-10-17T06:48:38.480Z,44.53
2018-10-17T06:51:07.042Z,46.03
2018-10-17T06:53:35.652Z,45.30
2018-10-17T06:56:04.215Z,46.67
2018-10-17T06:58:32.739Z,44.80
2018-10-17T07:01:01.320Z,47.23
2018-10-17T07:03:29.772Z,46.03
2018-10-17T07:05:58.282Z,47.13
2018-10-17T07:08:26.890Z,48.63
2018-10-17T07:10:55.399Z,45.53
2018-10-17T07:13:23.911Z,46.27
2018-10-17T07:15:52.504Z,43.17
2018-10-17T07:18:20.978Z,43.97
2018-10-17T07:20:50.250Z,44.50
2018-10-17T07:23:19.007Z,43.10
2018-10-17T07:25:47.550Z,43.97
2018-10-17T07:28:16.043Z,44.33
2018-10-17T07:30:45.169Z,41.50
2018-10-17T07:33:13.812Z,41.40
2018-10-17T07:35:42.450Z,44.57
2018-10-17T07:38:11.002Z,44.60
2018-10-17T07:40:39.568Z,46.77
2018-10-17T07:43:14.917Z,47.77
2018-10-17T07:45:43.706Z,49.17
2018-10-17T07:48:12.304Z,49.53
2018-10-17T07:50:40.890Z,49.27
2018-10-17T07:53:09.427Z,48.97
2018-10-17T07:55:38.010Z,49.23
2018-10-17T07:58:06.817Z,48.23
2018-10-17T08:00:35.321Z,47.53
2018-10-17T08:03:03.838Z,46.80
2018-10-17T08:05:32.434Z,47.23
2018-10-17T08:08:00.942Z,47.00
2018-10-17T08:10:35.800Z,46.13
2018-10-17T08:13:05.487Z,46.07
2018-10-17T08:15:34.031Z,45.63
2018-10-17T08:18:02.605Z,45.53
2018-10-17T08:20:31.139Z,44.50
2018-10-17T08:22:59.659Z,45.40
2018-10-17T08:25:28.154Z,43.53
2018-10-17T08:27:56.684Z,44.13
2018-10-17T08:30:25.208Z,43.20
2018-10-17T08:32:53.730Z,43.27
2018-10-17T08:35:22.276Z,42.93
2018-10-17T08:37:51.151Z,42.07
2018-10-17T08:40:19.363Z,43.13
2018-10-17T08:42:47.903Z,41.90
2018-10-17T08:45:16.556Z,39.97
2018-10-17T08:47:45.373Z,39.83
2018-10-17T08:50:13.978Z,38.50
2018-10-17T08:52:42.449Z,39.00
2018-10-17T08:55:11.027Z,38.93
2018-10-17T08:57:39.586Z,37.60
2018-10-17T09:00:08.674Z,35.17
2018-10-17T09:02:37.188Z,38.07
2018-10-17T09:05:05.775Z,36.87
2018-10-17T09:07:34.426Z,35.63
2018-10-17T09:10:02.883Z,34.50
2018-10-17T09:12:31.419Z,33.77
2018-10-17T09:14:59.951Z,34.40
2018-10-17T09:17:28.488Z,33.13
2018-10-17T09:19:57.132Z,33.33
2018-10-17T09:22:25.741Z,35.60
2018-10-17T09:24:54.060Z,34.03
2018-10-17T09:27:22.618Z,36.10
2018-10-17T09:29:51.325Z,33.53
2018-10-17T09:32:19.858Z,30.23
2018-10-17T09:34:48.471Z,32.10
2018-10-17T09:37:16.954Z,29.60
2018-10-17T09:39:45.491Z,28.07
2018-10-17T09:42:14.111Z,27.57
2018-10-17T09:44:42.538Z,29.17
2018-10-17T09:47:11.019Z,27.37
2018-10-17T09:49:39.552Z,30.30
2018-10-17T09:52:08.110Z,28.47
2018-10-17T09:54:36.535Z,28.73
2018-10-17T09:57:05.291Z,28.67
2018-10-17T09:59:33.840Z,27.33
2018-10-17T10:02:02.382Z,28.17
2018-10-17T10:04:30.857Z,23.70
2018-10-17T10:06:59.386Z,23.80
2018-10-17T10:09:27.899Z,24.40
2018-10-17T10:11:56.443Z,24.30
2018-10-17T10:14:24.886Z,23.97
2018-10-17T10:16:53.388Z,24.93
2018-10-17T10:19:21.897Z,23.90
2018-10-17T10:21:50.408Z,24.23
2018-10-17T10:24:19.015Z,25.60
2018-10-17T10:26:47.526Z,24.73
2018-10-17T10:29:16.050Z,23.47
2018-10-17T10:31:44.556Z,23.53
2018-10-17T10:34:13.134Z,24.57
2018-10-17T10:36:41.570Z,24.60
2018-10-17T10:39:11.273Z,24.43
2018-10-17T10:41:40.262Z,24.80
2018-10-17T10:44:08.821Z,23.53
2018-10-17T10:46:37.330Z,21.70
2018-10-17T10:49:05.966Z,23.43
2018-10-17T10:51:34.495Z,23.53
2018-10-17T10:54:03.117Z,24.23
2018-10-17T10:56:32.203Z,22.40
2018-10-17T10:59:00.771Z,22.63
2018-10-17T11:01:29.317Z,22.13
2018-10-17T11:03:57.989Z,21.20
2018-10-17T11:06:26.598Z,20.43
2018-10-17T11:08:55.199Z,18.90
2018-10-17T11:11:23.737Z,18.43
2018-10-17T11:13:52.310Z,18.30
2018-10-17T11:16:20.869Z,19.83
2018-10-17T11:18:49.411Z,18.77
2018-10-17T11:21:18.054Z,19.47
2018-10-17T11:23:46.549Z,18.20
2018-10-17T11:26:15.095Z,19.47
2018-10-17T11:28:43.636Z,21.17
2018-10-17T11:31:12.315Z,17.97
2018-10-17T11:33:40.848Z,22.47
2018-10-17T11:36:09.378Z,22.17
2018-10-17T11:38:37.926Z,20.97
2018-10-17T11:41:06.584Z,18.63
2018-10-17T11:43:35.056Z,20.07
2018-10-17T11:46:03.647Z,19.77
2018-10-17T11:48:32.209Z,18.93
2018-10-17T11:51:00.805Z,19.13
2018-10-17T11:53:29.329Z,19.67
2018-10-17T11:55:57.920Z,19.27
2018-10-17T11:58:26.465Z,19.03
2018-10-17T12:00:55.033Z,18.50
2018-10-17T12:03:23.587Z,17.93
2018-10-17T12:05:52.190Z,19.00
2018-10-17T12:08:20.581Z,18.80
2018-10-17T12:10:49.101Z,18.87
2018-10-17T12:13:17.648Z,18.23
2018-10-17T12:15:46.167Z,17.37
2018-10-17T12:18:14.689Z,16.00
2018-10-17T12:20:43.215Z,16.23
2018-10-17T12:23:11.735Z,16.57
2018-10-17T12:25:40.244Z,17.53
2018-10-17T12:28:08.759Z,17.13
2018-10-17T12:30:37.240Z,17.23
2018-10-17T12:33:05.967Z,17.60
2018-10-17T12:35:34.455Z,16.43
2018-10-17T12:38:02.951Z,17.67
2018-10-17T12:40:31.592Z,16.70
2018-10-17T12:43:00.028Z,17.87
2018-10-17T12:45:28.675Z,17.77
2018-10-17T12:47:57.181Z,17.47
2018-10-17T12:50:25.684Z,16.93
2018-10-17T12:52:54.193Z,17.03
2018-10-17T12:55:22.714Z,17.30
2018-10-17T12:57:51.216Z,16.77
2018-10-17T13:00:19.710Z,16.67
2018-10-17T13:02:48.214Z,16.17
2018-10-17T13:05:18.047Z,14.50
2018-10-17T13:07:46.628Z,13.77
2018-10-17T13:10:15.114Z,15.13
2018-10-17T13:12:43.705Z,13.97
2018-10-17T13:15:14.041Z,15.07
2018-10-17T13:17:43.646Z,15.53
2018-10-17T13:20:12.169Z,15.67
2018-10-17T13:22:40.779Z,15.23
2018-10-17T13:25:10.296Z,15.40
2018-10-17T13:27:38.758Z,14.90
2018-10-17T13:30:07.874Z,14.00
2018-10-17T13:32:36.415Z,12.97
2018-10-17T13:35:05.575Z,14.60
2018-10-17T13:37:34.163Z,16.60
2018-10-17T13:40:02.957Z,16.50
2018-10-17T13:42:31.547Z,15.70
2018-10-17T13:45:00.339Z,15.70
2018-10-17T13:47:29.003Z,15.60
2018-10-17T13:49:57.907Z,15.20
2018-10-17T13:52:26.595Z,16.03
2018-10-17T13:54:55.168Z,15.17
2018-10-17T13:57:23.712Z,15.63
2018-10-17T13:59:52.306Z,13.27
2018-10-17T14:02:20.803Z,12.87
2018-10-17T14:04:49.324Z,11.97
2018-10-17T14:07:17.992Z,14.47
2018-10-17T14:09:46.512Z,15.13
2018-10-17T14:12:15.072Z,15.17
2018-10-17T14:14:43.529Z,15.50
2018-10-17T14:17:12.091Z,15.57
2018-10-17T14:19:40.631Z,14.90
2018-10-17T14:22:09.827Z,14.40
2018-10-17T14:24:38.393Z,14.60
2018-10-17T14:27:07.378Z,14.73
2018-10-17T14:29:35.918Z,14.93
2018-10-17T14:32:04.745Z,14.70
2018-10-17T14:34:33.301Z,14.43
2018-10-17T14:37:01.903Z,13.27
2018-10-17T14:39:30.572Z,14.47
2018-10-17T14:41:59.818Z,15.73
2018-10-17T14:44:28.389Z,15.17
2018-10-17T14:46:56.971Z,15.60
2018-10-17T14:49:25.495Z,15.33
2018-10-17T14:51:54.031Z,16.20
2018-10-17T14:54:22.539Z,14.87
2018-10-17T14:56:51.028Z,15.23
2018-10-17T14:59:19.908Z,15.37
2018-10-17T15:01:48.463Z,15.60
2018-10-17T15:04:17.023Z,16.07
2018-10-17T15:06:45.643Z,15.93
2018-10-17T15:09:14.388Z,15.67
2018-10-17T15:11:43.006Z,16.13
2018-10-17T15:14:11.545Z,15.63
2018-10-17T15:16:40.126Z,15.90
2018-10-17T15:19:08.699Z,14.93
2018-10-17T15:21:37.211Z,15.23
2018-10-17T15:24:06.037Z,15.20
2018-10-17T15:26:34.529Z,15.50
2018-10-17T15:29:03.087Z,14.30
2018-10-17T15:31:31.697Z,14.17
2018-10-17T15:34:00.229Z,14.77
2018-10-17T15:36:28.772Z,14.30
2018-10-17T15:38:57.433Z,14.47
2018-10-17T15:41:25.911Z,14.73
2018-10-17T15:43:54.538Z,15.20
2018-10-17T15:46:23.054Z,13.43
2018-10-17T15:48:51.599Z,14.47
2018-10-17T15:51:20.197Z,13.00
2018-10-17T15:53:48.776Z,12.83
2018-10-17T15:56:17.317Z,12.53
2018-10-17T15:58:45.859Z,13.00
2018-10-17T16:01:14.417Z,12.60
2018-10-17T16:03:42.898Z,12.93
2018-10-17T16:06:11.432Z,12.93
2018-10-17T16:08:39.950Z,11.97
2018-10-17T16:11:08.458Z,12.20
2018-10-17T16:13:37.133Z,13.87
2018-10-17T16:16:06.477Z,14.33
2018-10-17T16:18:35.120Z,13.87
2018-10-17T16:21:03.699Z,13.70
2018-10-17T16:23:32.211Z,13.00
2018-10-17T16:26:00.708Z,13.87
2018-10-17T16:28:29.270Z,14.10
2018-10-17T16:30:57.882Z,14.10
2018-10-17T16:33:26.395Z,14.10
2018-10-17T16:35:55.002Z,14.63
2018-10-17T16:38:23.522Z,15.37
2018-10-17T16:40:52.165Z,16.23
2018-10-17T16:43:20.687Z,16.57
2018-10-17T16:45:49.272Z,16.43
2018-10-17T16:48:17.860Z,16.50
2018-10-17T16:50:46.450Z,16.10
2018-10-17T16:53:14.901Z,17.43
2018-10-17T16:55:43.424Z,17.37
2018-10-17T16:58:12.027Z,18.70
2018-10-17T17:00:40.496Z,18.53
2018-10-17T17:03:09.559Z,19.07
2018-10-17T17:05:38.094Z,18.00
2018-10-17T17:08:06.716Z,18.87
2018-10-17T17:10:35.263Z,18.53
2018-10-17T17:13:03.840Z,19.07
2018-10-17T17:15:33.075Z,19.37
2018-10-17T17:18:01.591Z,19.70
2018-10-17T17:20:30.176Z,20.10
2018-10-17T17:22:58.681Z,19.57
2018-10-17T17:25:27.286Z,18.97
2018-10-17T17:27:55.816Z,19.90
2018-10-17T17:30:24.429Z,21.93
2018-10-17T17:32:52.907Z,20.03
2018-10-17T17:37:50.062Z,20.50
2018-10-17T17:40:18.637Z,21.40
2018-10-17T17:42:47.175Z,21.83
2018-10-17T17:45:15.687Z,20.87
2018-10-17T17:47:44.240Z,20.23
2018-10-17T17:50:12.802Z,21.73
2018-10-17T17:52:41.376Z,23.37
2018-10-17T17:55:10.310Z,22.40
2018-10-17T17:57:39.221Z,23.00
2018-10-17T18:00:08.254Z,23.63
2018-10-17T18:02:36.785Z,23.13
2018-10-17T18:05:06.012Z,24.33
2018-10-17T18:07:34.516Z,22.80
2018-10-17T18:10:03.177Z,22.80
2018-10-17T18:12:31.726Z,24.40
2018-10-17T18:15:00.340Z,22.93
2018-10-17T18:17:28.864Z,22.23
2018-10-17T18:19:57.469Z,24.23
2018-10-17T18:22:26.058Z,21.37
2018-10-17T18:24:54.667Z,23.43
2018-10-17T18:27:23.311Z,21.80
2018-10-17T18:29:52.821Z,22.30
2018-10-17T18:32:22.248Z,21.20
2018-10-17T18:34:50.857Z,20.57
2018-10-17T18:37:19.418Z,20.37
2018-10-17T18:39:47.961Z,21.50
2018-10-17T18:42:16.571Z,20.10
2018-10-17T18:44:45.136Z,20.27
2018-10-17T18:47:13.684Z,20.53
2018-10-17T18:49:42.974Z,19.57
2018-10-17T18:52:11.589Z,20.17
2018-10-17T18:54:40.247Z,18.90
2018-10-17T18:57:08.944Z,19.47
2018-10-17T18:59:37.694Z,19.07
2018-10-17T19:02:06.513Z,19.30
2018-10-17T19:04:35.073Z,19.20
2018-10-17T19:07:03.639Z,19.97
2018-10-17T19:09:32.176Z,19.20
2018-10-17T19:12:00.709Z,19.40
2018-10-17T19:14:29.270Z,18.93
2018-10-17T19:16:57.814Z,19.20
2018-10-17T19:19:26.389Z,19.33
2018-10-17T19:21:54.903Z,19.37
2018-10-17T19:24:23.462Z,19.00
2018-10-17T19:26:52.078Z,20.27
2018-10-17T19:29:20.622Z,18.03
2018-10-17T19:31:49.133Z,19.37
2018-10-17T19:34:17.696Z,18.40
2018-10-17T19:36:46.222Z,18.43
2018-10-17T19:39:14.798Z,18.93
2018-10-17T19:41:43.673Z,18.47
2018-10-17T19:44:13.096Z,18.33
2018-10-17T19:46:41.642Z,18.97
2018-10-17T19:49:10.430Z,18.77
2018-10-17T19:51:38.929Z,18.90
2018-10-17T19:54:08.332Z,18.60
2018-10-17T19:56:36.903Z,19.20
2018-10-17T19:59:14.700Z,18.27
2018-10-17T20:01:43.316Z,17.67
2018-10-17T20:04:11.839Z,16.70
2018-10-17T20:06:40.336Z,16.80
2018-10-17T20:09:10.247Z,16.83
2018-10-17T20:11:38.806Z,16.70
2018-10-17T20:14:08.365Z,16.77
2018-10-17T20:16:36.866Z,16.07
2018-10-17T20:19:05.734Z,16.47
2018-10-17T20:21:34.232Z,16.93
2018-10-17T20:24:02.802Z,16.43
2018-10-17T20:26:31.377Z,16.27
2018-10-17T20:28:59.917Z,16.07
2018-10-17T20:31:28.462Z,16.70
2018-10-17T20:33:56.957Z,15.50
2018-10-17T20:36:25.447Z,15.90
2018-10-17T20:38:54.002Z,15.43
2018-10-17T20:41:23.588Z,15.77
2018-10-17T20:43:52.107Z,17.50
2018-10-17T20:46:20.975Z,17.87
2018-10-17T20:48:49.473Z,18.47
2018-10-17T20:51:18.110Z,16.03
2018-10-17T20:53:46.693Z,18.10
2018-10-17T20:56:15.264Z,17.57
2018-10-17T20:58:43.799Z,28.57
2018-10-17T21:01:12.327Z,28.83
2018-10-17T21:03:40.880Z,22.40
2018-10-17T21:06:09.372Z,17.37
2018-10-17T21:08:38.019Z,15.83
2018-10-17T21:11:06.680Z,16.07
2018-10-17T21:13:35.208Z,16.17
2018-10-17T21:16:03.728Z,15.33
2018-10-17T21:18:32.377Z,14.20
2018-10-17T21:21:00.770Z,15.57
2018-10-17T21:23:29.334Z,15.23
2018-10-17T21:25:57.967Z,15.67
2018-10-17T21:28:26.461Z,14.43
2018-10-17T21:30:55.083Z,16.00
2018-10-17T21:33:23.633Z,15.83
2018-10-17T21:35:52.658Z,15.90
2018-10-17T21:38:21.180Z,15.90
2018-10-17T21:40:49.666Z,16.73
2018-10-17T21:43:19.021Z,16.37
2018-10-17T21:45:47.573Z,16.13
2018-10-17T21:48:16.076Z,15.73
2018-10-17T21:50:44.662Z,16.33
2018-10-17T21:53:13.271Z,16.63
2018-10-17T21:55:41.825Z,17.03
2018-10-17T21:58:10.328Z,16.53
2018-10-17T22:00:39.695Z,17.43
2018-10-17T22:03:08.170Z,17.17
2018-10-17T22:05:36.801Z,17.20
2018-10-17T22:08:05.863Z,16.93
2018-10-17T22:10:34.402Z,16.70
2018-10-17T22:13:02.880Z,17.70
2018-10-17T22:15:31.497Z,17.17
2018-10-17T22:18:00.004Z,18.20
2018-10-17T22:20:28.573Z,18.10
2018-10-17T22:22:57.093Z,18.07
2018-10-17T22:25:25.583Z,18.20
2018-10-17T22:27:54.113Z,17.13
2018-10-17T22:30:22.688Z,18.27
2018-10-17T22:32:51.193Z,17.63
2018-10-17T22:35:19.881Z,17.50
2018-10-17T22:37:48.410Z,17.03
2018-10-17T22:40:16.908Z,18.50
2018-10-17T22:42:45.415Z,18.17
2018-10-17T22:45:13.909Z,18.87
2018-10-17T22:47:42.401Z,18.57
2018-10-17T22:50:11.550Z,18.77
2018-10-17T22:52:40.430Z,17.90
2018-10-17T22:55:08.936Z,17.60
2018-10-17T22:57:37.479Z,17.33
2018-10-17T23:00:07.311Z,18.03
2018-10-17T23:02:35.802Z,18.70
2018-10-17T23:05:05.698Z,17.87
2018-10-17T23:07:34.388Z,18.87
2018-10-17T23:10:02.970Z,17.37
2018-10-17T23:12:31.544Z,18.77
2018-10-17T23:15:00.048Z,18.83
2018-10-17T23:17:28.727Z,17.70
2018-10-17T23:19:57.219Z,18.20
2018-10-17T23:22:25.723Z,17.93
2018-10-17T23:24:54.298Z,17.63
2018-10-17T23:27:22.832Z,18.70
2018-10-17T23:29:51.340Z,17.30
2018-10-17T23:32:19.881Z,17.67
2018-10-17T23:34:49.296Z,18.90
2018-10-17T23:37:17.765Z,18.50
2018-10-17T23:39:46.352Z,18.33
2018-10-17T23:42:15.051Z,18.63
2018-10-17T23:44:43.485Z,17.80
2018-10-17T23:47:11.968Z,18.17
2018-10-17T23:49:40.439Z,17.50
2018-10-17T23:52:08.933Z,17.43
2018-10-17T23:54:37.424Z,17.73
2018-10-17T23:57:06.305Z,18.30
2018-10-17T23:59:34.883Z,17.67
